sensor_id;sensor_type;location;lat;lon;timestamp;P1;durP1;ratioP1;P2;durP2;ratioP2
74632;SDS011;63139;52.018;8.552;2023-10-19T00:00:32;16.17;;;11.23;;
74632;SDS011;63139;52.018;8.552;2023-10-19T00:03:02;15.73;;;10.90;;
74632;SDS011;63139;52.018;8.552;2023-10-19T00:05:29;15.57;;;11.02;;
74632;SDS011;63139;52.018;8.552;2023-10-19T00:07:58;19.05;;;11.48;;
74632;SDS011;63139;52.018;8.552;2023-10-19T00:10:26;15.32;;;10.85;;
74632;SDS011;63139;52.018;8.552;2023-10-19T00:12:59;15.60;;;10.48;;
74632;SDS011;63139;52.018;8.552;2023-10-19T00:15:28;14.30;;;10.05;;
74632;SDS011;63139;52.018;8.552;2023-10-19T00:17:58;19.45;;;11.82;;
74632;SDS011;63139;52.018;8.552;2023-10-19T00:20:32;18.38;;;12.40;;
74632;SDS011;63139;52.018;8.552;2023-10-19T00:23:15;16.80;;;11.50;;
74632;SDS011;63139;52.018;8.552;2023-10-19T00:25:45;19.13;;;11.80;;
74632;SDS011;63139;52.018;8.552;2023-10-19T00:28:17;17.08;;;11.55;;
74632;SDS011;63139;52.018;8.552;2023-10-19T00:30:47;14.70;;;10.98;;
74632;SDS011;63139;52.018;8.552;2023-10-19T00:33:18;17.95;;;11.88;;
74632;SDS011;63139;52.018;8.552;2023-10-19T00:35:48;15.30;;;11.60;;
74632;SDS011;63139;52.018;8.552;2023-10-19T00:38:23;17.70;;;12.85;;
74632;SDS011;63139;52.018;8.552;2023-10-19T00:41:05;16.15;;;11.32;;
74632;SDS011;63139;52.018;8.552;2023-10-19T00:43:39;21.70;;;13.98;;
74632;SDS011;63139;52.018;8.552;2023-10-19T00:46:12;16.20;;;11.27;;
74632;SDS011;63139;52.018;8.552;2023-10-19T00:48:52;18.63;;;13.07;;
74632;SDS011;63139;52.018;8.552;2023-10-19T00:51:22;15.13;;;11.07;;
74632;SDS011;63139;52.018;8.552;2023-10-19T00:54:05;19.08;;;12.05;;
74632;SDS011;63139;52.018;8.552;2023-10-19T00:56:37;19.50;;;12.60;;
74632;SDS011;63139;52.018;8.552;2023-10-19T00:59:07;18.27;;;12.95;;
74632;SDS011;63139;52.018;8.552;2023-10-19T01:01:42;19.77;;;12.38;;
74632;SDS011;63139;52.018;8.552;2023-10-19T01:04:13;18.52;;;12.90;;
74632;SDS011;63139;52.018;8.552;2023-10-19T01:06:41;18.02;;;12.70;;
74632;SDS011;63139;52.018;8.552;2023-10-19T01:09:16;17.80;;;12.48;;
74632;SDS011;63139;52.018;8.552;2023-10-19T01:11:46;20.30;;;11.93;;
74632;SDS011;63139;52.018;8.552;2023-10-19T01:14:19;17.65;;;12.35;;
74632;SDS011;63139;52.018;8.552;2023-10-19T01:16:49;18.67;;;12.77;;
74632;SDS011;63139;52.018;8.552;2023-10-19T01:19:17;18.85;;;13.55;;
74632;SDS011;63139;52.018;8.552;2023-10-19T01:21:46;21.60;;;13.88;;
74632;SDS011;63139;52.018;8.552;2023-10-19T01:24:19;19.02;;;13.13;;
74632;SDS011;63139;52.018;8.552;2023-10-19T01:27:07;16.33;;;11.30;;
74632;SDS011;63139;52.018;8.552;2023-10-19T01:29:36;21.80;;;14.23;;
74632;SDS011;63139;52.018;8.552;2023-10-19T01:32:05;17.88;;;13.10;;
74632;SDS011;63139;52.018;8.552;2023-10-19T01:34:34;19.00;;;12.80;;
74632;SDS011;63139;52.018;8.552;2023-10-19T01:37:03;17.98;;;11.90;;
74632;SDS011;63139;52.018;8.552;2023-10-19T01:39:32;22.98;;;13.63;;
74632;SDS011;63139;52.018;8.552;2023-10-19T01:42:02;21.20;;;14.45;;
74632;SDS011;63139;52.018;8.552;2023-10-19T01:44:30;19.08;;;12.82;;
74632;SDS011;63139;52.018;8.552;2023-10-19T01:46:59;21.08;;;14.32;;
74632;SDS011;63139;52.018;8.552;2023-10-19T01:49:28;17.85;;;12.50;;
74632;SDS011;63139;52.018;8.552;2023-10-19T01:51:56;20.20;;;12.10;;
74632;SDS011;63139;52.018;8.552;2023-10-19T01:54:24;19.60;;;13.15;;
74632;SDS011;63139;52.018;8.552;2023-10-19T01:56:53;18.80;;;12.50;;
74632;SDS011;63139;52.018;8.552;2023-10-19T01:59:23;19.95;;;12.60;;
74632;SDS011;63139;52.018;8.552;2023-10-19T02:01:53;20.52;;;13.10;;
74632;SDS011;63139;52.018;8.552;2023-10-19T02:04:23;17.67;;;12.57;;
74632;SDS011;63139;52.018;8.552;2023-10-19T02:06:51;19.95;;;13.48;;
74632;SDS011;63139;52.018;8.552;2023-10-19T02:09:20;20.88;;;13.75;;
74632;SDS011;63139;52.018;8.552;2023-10-19T02:11:54;19.88;;;12.55;;
74632;SDS011;63139;52.018;8.552;2023-10-19T02:14:25;20.25;;;12.65;;
74632;SDS011;63139;52.018;8.552;2023-10-19T02:16:56;17.42;;;11.82;;
74632;SDS011;63139;52.018;8.552;2023-10-19T02:19:26;19.92;;;12.70;;
74632;SDS011;63139;52.018;8.552;2023-10-19T02:21:56;18.05;;;12.07;;
74632;SDS011;63139;52.018;8.552;2023-10-19T02:24:25;20.00;;;13.32;;
74632;SDS011;63139;52.018;8.552;2023-10-19T02:26:55;19.75;;;13.18;;
74632;SDS011;63139;52.018;8.552;2023-10-19T02:29:23;18.85;;;12.43;;
74632;SDS011;63139;52.018;8.552;2023-10-19T02:31:53;20.73;;;13.25;;
74632;SDS011;63139;52.018;8.552;2023-10-19T02:34:21;18.25;;;11.45;;
74632;SDS011;63139;52.018;8.552;2023-10-19T02:36:49;17.77;;;11.43;;
74632;SDS011;63139;52.018;8.552;2023-10-19T02:39:16;16.13;;;11.55;;
74632;SDS011;63139;52.018;8.552;2023-10-19T02:41:44;18.73;;;12.23;;
74632;SDS011;63139;52.018;8.552;2023-10-19T02:44:15;18.30;;;11.95;;
74632;SDS011;63139;52.018;8.552;2023-10-19T02:46:49;16.55;;;12.32;;
74632;SDS011;63139;52.018;8.552;2023-10-19T02:49:20;18.42;;;11.77;;
74632;SDS011;63139;52.018;8.552;2023-10-19T02:51:48;14.60;;;10.45;;
74632;SDS011;63139;52.018;8.552;2023-10-19T02:54:18;15.52;;;10.68;;
74632;SDS011;63139;52.018;8.552;2023-10-19T02:56:47;17.63;;;11.02;;
74632;SDS011;63139;52.018;8.552;2023-10-19T02:59:17;17.50;;;11.80;;
74632;SDS011;63139;52.018;8.552;2023-10-19T03:01:48;19.00;;;11.60;;
74632;SDS011;63139;52.018;8.552;2023-10-19T03:04:16;17.17;;;11.75;;
74632;SDS011;63139;52.018;8.552;2023-10-19T03:06:44;17.15;;;11.60;;
74632;SDS011;63139;52.018;8.552;2023-10-19T03:09:12;16.40;;;10.73;;
74632;SDS011;63139;52.018;8.552;2023-10-19T03:11:49;17.95;;;10.98;;
74632;SDS011;63139;52.018;8.552;2023-10-19T03:14:20;15.27;;;10.35;;
74632;SDS011;63139;52.018;8.552;2023-10-19T03:16:51;18.02;;;11.13;;
74632;SDS011;63139;52.018;8.552;2023-10-19T03:19:18;15.82;;;10.90;;
74632;SDS011;63139;52.018;8.552;2023-10-19T03:21:47;15.98;;;10.65;;
74632;SDS011;63139;52.018;8.552;2023-10-19T03:24:15;14.55;;;10.68;;
74632;SDS011;63139;52.018;8.552;2023-10-19T03:27:02;17.40;;;11.55;;
74632;SDS011;63139;52.018;8.552;2023-10-19T03:29:36;15.45;;;9.65;;
74632;SDS011;63139;52.018;8.552;2023-10-19T03:32:06;15.68;;;10.05;;
74632;SDS011;63139;52.018;8.552;2023-10-19T03:34:34;12.43;;;9.35;;
74632;SDS011;63139;52.018;8.552;2023-10-19T03:37:05;14.52;;;9.18;;
74632;SDS011;63139;52.018;8.552;2023-10-19T03:39:38;12.80;;;9.57;;
74632;SDS011;63139;52.018;8.552;2023-10-19T03:42:06;13.55;;;9.10;;
74632;SDS011;63139;52.018;8.552;2023-10-19T03:44:37;11.73;;;8.35;;
74632;SDS011;63139;52.018;8.552;2023-10-19T03:47:12;13.30;;;8.93;;
74632;SDS011;63139;52.018;8.552;2023-10-19T03:49:42;11.07;;;7.78;;
74632;SDS011;63139;52.018;8.552;2023-10-19T03:52:10;12.23;;;8.13;;
74632;SDS011;63139;52.018;8.552;2023-10-19T03:54:48;13.68;;;8.18;;
74632;SDS011;63139;52.018;8.552;2023-10-19T03:57:17;11.77;;;8.10;;
74632;SDS011;63139;52.018;8.552;2023-10-19T03:59:52;12.85;;;8.02;;
74632;SDS011;63139;52.018;8.552;2023-10-19T04:02:23;11.68;;;8.55;;
74632;SDS011;63139;52.018;8.552;2023-10-19T04:04:54;10.45;;;7.32;;
74632;SDS011;63139;52.018;8.552;2023-10-19T04:07:23;9.38;;;7.05;;
74632;SDS011;63139;52.018;8.552;2023-10-19T04:09:52;9.18;;;7.30;;
74632;SDS011;63139;52.018;8.552;2023-10-19T04:12:26;9.52;;;7.10;;
74632;SDS011;63139;52.018;8.552;2023-10-19T04:14:58;10.65;;;6.85;;
74632;SDS011;63139;52.018;8.552;2023-10-19T04:17:35;9.65;;;7.18;;
74632;SDS011;63139;52.018;8.552;2023-10-19T04:20:05;8.80;;;6.53;;
74632;SDS011;63139;52.018;8.552;2023-10-19T04:22:52;7.78;;;6.30;;
74632;SDS011;63139;52.018;8.552;2023-10-19T04:25:20;10.05;;;7.45;;
74632;SDS011;63139;52.018;8.552;2023-10-19T04:27:52;11.05;;;7.03;;
74632;SDS011;63139;52.018;8.552;2023-10-19T04:30:25;9.02;;;6.63;;
74632;SDS011;63139;52.018;8.552;2023-10-19T04:32:53;9.65;;;6.57;;
74632;SDS011;63139;52.018;8.552;2023-10-19T04:35:22;8.27;;;5.93;;
74632;SDS011;63139;52.018;8.552;2023-10-19T04:37:50;8.38;;;5.95;;
74632;SDS011;63139;52.018;8.552;2023-10-19T04:40:18;8.65;;;5.53;;
74632;SDS011;63139;52.018;8.552;2023-10-19T04:42:47;6.93;;;5.75;;
74632;SDS011;63139;52.018;8.552;2023-10-19T04:45:16;7.65;;;5.88;;
74632;SDS011;63139;52.018;8.552;2023-10-19T04:47:45;9.98;;;6.22;;
74632;SDS011;63139;52.018;8.552;2023-10-19T04:50:13;8.63;;;6.07;;
74632;SDS011;63139;52.018;8.552;2023-10-19T04:52:42;8.77;;;6.78;;
74632;SDS011;63139;52.018;8.552;2023-10-19T04:55:10;8.55;;;6.07;;
74632;SDS011;63139;52.018;8.552;2023-10-19T04:57:38;9.02;;;6.85;;
74632;SDS011;63139;52.018;8.552;2023-10-19T05:00:06;7.75;;;6.40;;
74632;SDS011;63139;52.018;8.552;2023-10-19T05:02:40;9.80;;;6.55;;
74632;SDS011;63139;52.018;8.552;2023-10-19T05:05:10;9.63;;;6.90;;
74632;SDS011;63139;52.018;8.552;2023-10-19T05:07:40;7.18;;;5.70;;
74632;SDS011;63139;52.018;8.552;2023-10-19T05:10:09;8.63;;;6.22;;
74632;SDS011;63139;52.018;8.552;2023-10-19T05:12:37;9.32;;;6.65;;
74632;SDS011;63139;52.018;8.552;2023-10-19T05:15:05;7.78;;;5.82;;
74632;SDS011;63139;52.018;8.552;2023-10-19T05:17:34;8.40;;;6.65;;
74632;SDS011;63139;52.018;8.552;2023-10-19T05:20:02;10.45;;;8.20;;
74632;SDS011;63139;52.018;8.552;2023-10-19T05:22:33;9.90;;;8.43;;
74632;SDS011;63139;52.018;8.552;2023-10-19T05:25:01;9.85;;;7.50;;
74632;SDS011;63139;52.018;8.552;2023-10-19T05:27:29;9.30;;;6.65;;
74632;SDS011;63139;52.018;8.552;2023-10-19T05:29:58;7.32;;;5.90;;
74632;SDS011;63139;52.018;8.552;2023-10-19T05:32:28;9.20;;;6.55;;
74632;SDS011;63139;52.018;8.552;2023-10-19T05:34:57;9.77;;;6.38;;
74632;SDS011;63139;52.018;8.552;2023-10-19T05:37:26;8.07;;;5.95;;
74632;SDS011;63139;52.018;8.552;2023-10-19T05:39:57;7.10;;;5.57;;
74632;SDS011;63139;52.018;8.552;2023-10-19T05:42:25;8.27;;;5.97;;
74632;SDS011;63139;52.018;8.552;2023-10-19T05:44:54;7.00;;;5.60;;
74632;SDS011;63139;52.018;8.552;2023-10-19T05:47:22;8.98;;;6.88;;
74632;SDS011;63139;52.018;8.552;2023-10-19T05:49:50;8.77;;;7.03;;
74632;SDS011;63139;52.018;8.552;2023-10-19T05:52:18;7.97;;;5.97;;
74632;SDS011;63139;52.018;8.552;2023-10-19T05:54:46;8.13;;;6.28;;
74632;SDS011;63139;52.018;8.552;2023-10-19T05:57:18;10.07;;;7.13;;
74632;SDS011;63139;52.018;8.552;2023-10-19T05:59:46;7.40;;;5.95;;
74632;SDS011;63139;52.018;8.552;2023-10-19T06:02:14;11.27;;;7.03;;
74632;SDS011;63139;52.018;8.552;2023-10-19T06:04:41;10.07;;;6.93;;
74632;SDS011;63139;52.018;8.552;2023-10-19T06:07:09;10.98;;;6.70;;
74632;SDS011;63139;52.018;8.552;2023-10-19T06:09:37;8.45;;;6.43;;
74632;SDS011;63139;52.018;8.552;2023-10-19T06:12:06;9.20;;;6.57;;
74632;SDS011;63139;52.018;8.552;2023-10-19T06:14:37;10.55;;;7.50;;
74632;SDS011;63139;52.018;8.552;2023-10-19T06:17:04;8.65;;;6.70;;
74632;SDS011;63139;52.018;8.552;2023-10-19T06:19:32;10.40;;;7.18;;
74632;SDS011;63139;52.018;8.552;2023-10-19T06:22:00;11.65;;;8.65;;
74632;SDS011;63139;52.018;8.552;2023-10-19T06:24:29;13.15;;;8.82;;
74632;SDS011;63139;52.018;8.552;2023-10-19T06:26:57;10.88;;;8.18;;
74632;SDS011;63139;52.018;8.552;2023-10-19T06:29:25;10.80;;;7.30;;
74632;SDS011;63139;52.018;8.552;2023-10-19T06:31:56;10.48;;;8.18;;
74632;SDS011;63139;52.018;8.552;2023-10-19T06:34:24;12.02;;;7.68;;
74632;SDS011;63139;52.018;8.552;2023-10-19T06:36:53;12.18;;;7.97;;
74632;SDS011;63139;52.018;8.552;2023-10-19T06:39:21;12.45;;;9.02;;
74632;SDS011;63139;52.018;8.552;2023-10-19T06:41:49;11.27;;;8.38;;
74632;SDS011;63139;52.018;8.552;2023-10-19T06:44:17;11.23;;;8.20;;
74632;SDS011;63139;52.018;8.552;2023-10-19T06:46:45;11.65;;;8.23;;
74632;SDS011;63139;52.018;8.552;2023-10-19T06:49:14;11.57;;;8.45;;
74632;SDS011;63139;52.018;8.552;2023-10-19T06:51:44;13.30;;;8.00;;
74632;SDS011;63139;52.018;8.552;2023-10-19T06:54:11;11.65;;;8.25;;
74632;SDS011;63139;52.018;8.552;2023-10-19T06:56:39;9.88;;;7.47;;
74632;SDS011;63139;52.018;8.552;2023-10-19T06:59:07;10.45;;;7.97;;
74632;SDS011;63139;52.018;8.552;2023-10-19T07:01:35;10.82;;;7.88;;
74632;SDS011;63139;52.018;8.552;2023-10-19T07:04:03;10.18;;;7.60;;
74632;SDS011;63139;52.018;8.552;2023-10-19T07:06:32;13.88;;;9.30;;
74632;SDS011;63139;52.018;8.552;2023-10-19T07:09:01;12.40;;;8.73;;
74632;SDS011;63139;52.018;8.552;2023-10-19T07:11:31;12.20;;;8.85;;
74632;SDS011;63139;52.018;8.552;2023-10-19T07:13:59;12.85;;;9.18;;
74632;SDS011;63139;52.018;8.552;2023-10-19T07:16:28;11.05;;;8.10;;
74632;SDS011;63139;52.018;8.552;2023-10-19T07:18:56;11.40;;;8.07;;
74632;SDS011;63139;52.018;8.552;2023-10-19T07:21:25;10.93;;;8.05;;
74632;SDS011;63139;52.018;8.552;2023-10-19T07:23:57;12.50;;;8.88;;
74632;SDS011;63139;52.018;8.552;2023-10-19T07:26:27;11.50;;;8.90;;
74632;SDS011;63139;52.018;8.552;2023-10-19T07:28:57;10.85;;;8.57;;
74632;SDS011;63139;52.018;8.552;2023-10-19T07:31:26;10.45;;;8.20;;
74632;SDS011;63139;52.018;8.552;2023-10-19T07:33:54;11.05;;;8.13;;
74632;SDS011;63139;52.018;8.552;2023-10-19T07:36:25;10.73;;;8.23;;
74632;SDS011;63139;52.018;8.552;2023-10-19T07:38:53;11.50;;;7.78;;
74632;SDS011;63139;52.018;8.552;2023-10-19T07:41:23;10.65;;;7.65;;
74632;SDS011;63139;52.018;8.552;2023-10-19T07:43:50;11.13;;;8.25;;
74632;SDS011;63139;52.018;8.552;2023-10-19T07:46:18;12.30;;;8.10;;
74632;SDS011;63139;52.018;8.552;2023-10-19T07:48:47;11.43;;;8.30;;
74632;SDS011;63139;52.018;8.552;2023-10-19T07:51:15;11.90;;;7.70;;
74632;SDS011;63139;52.018;8.552;2023-10-19T07:53:43;11.75;;;7.72;;
74632;SDS011;63139;52.018;8.552;2023-10-19T07:56:12;10.68;;;7.30;;
74632;SDS011;63139;52.018;8.552;2023-10-19T07:58:41;9.23;;;7.00;;
74632;SDS011;63139;52.018;8.552;2023-10-19T08:01:08;9.77;;;7.50;;
74632;SDS011;63139;52.018;8.552;2023-10-19T08:03:37;9.65;;;8.07;;
74632;SDS011;63139;52.018;8.552;2023-10-19T08:06:06;9.43;;;7.60;;
74632;SDS011;63139;52.018;8.552;2023-10-19T08:08:34;10.10;;;7.10;;
74632;SDS011;63139;52.018;8.552;2023-10-19T08:11:03;9.98;;;7.32;;
74632;SDS011;63139;52.018;8.552;2023-10-19T08:13:31;11.65;;;8.20;;
74632;SDS011;63139;52.018;8.552;2023-10-19T08:16:00;10.23;;;7.78;;
74632;SDS011;63139;52.018;8.552;2023-10-19T08:18:28;11.80;;;8.60;;
74632;SDS011;63139;52.018;8.552;2023-10-19T08:20:57;10.77;;;7.72;;
74632;SDS011;63139;52.018;8.552;2023-10-19T08:23:25;12.65;;;8.43;;
74632;SDS011;63139;52.018;8.552;2023-10-19T08:25:54;10.70;;;8.35;;
74632;SDS011;63139;52.018;8.552;2023-10-19T08:28:23;10.23;;;7.85;;
74632;SDS011;63139;52.018;8.552;2023-10-19T08:30:52;10.00;;;8.10;;
74632;SDS011;63139;52.018;8.552;2023-10-19T08:33:29;10.97;;;7.63;;
74632;SDS011;63139;52.018;8.552;2023-10-19T08:36:00;9.57;;;7.80;;
74632;SDS011;63139;52.018;8.552;2023-10-19T08:38:28;9.32;;;7.18;;
74632;SDS011;63139;52.018;8.552;2023-10-19T08:40:55;10.15;;;7.15;;
74632;SDS011;63139;52.018;8.552;2023-10-19T08:43:24;10.00;;;7.40;;
74632;SDS011;63139;52.018;8.552;2023-10-19T08:45:54;8.77;;;7.20;;
74632;SDS011;63139;52.018;8.552;2023-10-19T08:48:23;11.80;;;7.32;;
74632;SDS011;63139;52.018;8.552;2023-10-19T08:50:52;8.82;;;6.85;;
74632;SDS011;63139;52.018;8.552;2023-10-19T08:53:22;10.18;;;7.25;;
74632;SDS011;63139;52.018;8.552;2023-10-19T08:55:51;10.02;;;6.82;;
74632;SDS011;63139;52.018;8.552;2023-10-19T08:58:21;9.48;;;6.97;;
74632;SDS011;63139;52.018;8.552;2023-10-19T09:00:49;7.10;;;6.15;;
74632;SDS011;63139;52.018;8.552;2023-10-19T09:03:21;9.05;;;6.20;;
74632;SDS011;63139;52.018;8.552;2023-10-19T09:05:52;8.02;;;6.32;;
74632;SDS011;63139;52.018;8.552;2023-10-19T09:08:20;8.80;;;6.00;;
74632;SDS011;63139;52.018;8.552;2023-10-19T09:10:49;6.70;;;5.45;;
74632;SDS011;63139;52.018;8.552;2023-10-19T09:13:20;6.70;;;5.22;;
74632;SDS011;63139;52.018;8.552;2023-10-19T09:15:49;7.50;;;5.20;;
74632;SDS011;63139;52.018;8.552;2023-10-19T09:18:21;6.32;;;5.00;;
74632;SDS011;63139;52.018;8.552;2023-10-19T09:20:51;8.07;;;5.65;;
74632;SDS011;63139;52.018;8.552;2023-10-19T09:23:21;5.95;;;4.75;;
74632;SDS011;63139;52.018;8.552;2023-10-19T09:25:49;7.18;;;4.43;;
74632;SDS011;63139;52.018;8.552;2023-10-19T09:28:19;5.20;;;4.28;;
74632;SDS011;63139;52.018;8.552;2023-10-19T09:30:48;5.13;;;3.85;;
74632;SDS011;63139;52.018;8.552;2023-10-19T09:33:16;4.82;;;4.10;;
74632;SDS011;63139;52.018;8.552;2023-10-19T09:35:45;6.18;;;4.05;;
74632;SDS011;63139;52.018;8.552;2023-10-19T09:38:16;5.88;;;3.85;;
74632;SDS011;63139;52.018;8.552;2023-10-19T09:40:48;5.75;;;4.00;;
74632;SDS011;63139;52.018;8.552;2023-10-19T09:43:20;5.47;;;3.92;;
74632;SDS011;63139;52.018;8.552;2023-10-19T09:45:53;8.32;;;3.95;;
74632;SDS011;63139;52.018;8.552;2023-10-19T09:48:26;3.63;;;3.22;;
74632;SDS011;63139;52.018;8.552;2023-10-19T09:50:55;8.15;;;3.40;;
74632;SDS011;63139;52.018;8.552;2023-10-19T09:53:26;4.50;;;3.20;;
74632;SDS011;63139;52.018;8.552;2023-10-19T09:55:56;3.58;;;3.03;;
74632;SDS011;63139;52.018;8.552;2023-10-19T09:58:27;3.67;;;2.95;;
74632;SDS011;63139;52.018;8.552;2023-10-19T10:00:59;4.05;;;3.08;;
74632;SDS011;63139;52.018;8.552;2023-10-19T10:03:42;4.88;;;2.50;;
74632;SDS011;63139;52.018;8.552;2023-10-19T10:06:10;4.97;;;2.58;;
74632;SDS011;63139;52.018;8.552;2023-10-19T10:08:42;4.20;;;2.30;;
74632;SDS011;63139;52.018;8.552;2023-10-19T10:11:17;3.17;;;2.28;;
74632;SDS011;63139;52.018;8.552;2023-10-19T10:13:48;2.58;;;2.28;;
74632;SDS011;63139;52.018;8.552;2023-10-19T10:16:19;3.42;;;2.30;;
74632;SDS011;63139;52.018;8.552;2023-10-19T10:18:51;5.30;;;2.40;;
74632;SDS011;63139;52.018;8.552;2023-10-19T10:21:25;4.45;;;2.60;;
74632;SDS011;63139;52.018;8.552;2023-10-19T10:23:56;4.57;;;2.22;;
74632;SDS011;63139;52.018;8.552;2023-10-19T10:26:26;3.60;;;2.42;;
74632;SDS011;63139;52.018;8.552;2023-10-19T10:29:09;5.07;;;2.72;;
74632;SDS011;63139;52.018;8.552;2023-10-19T10:31:43;3.35;;;2.10;;
74632;SDS011;63139;52.018;8.552;2023-10-19T10:37:10;4.25;;;2.08;;
74632;SDS011;63139;52.018;8.552;2023-10-19T10:39:41;3.13;;;2.20;;
74632;SDS011;63139;52.018;8.552;2023-10-19T10:42:11;3.30;;;2.40;;
74632;SDS011;63139;52.018;8.552;2023-10-19T10:44:40;2.42;;;2.22;;
74632;SDS011;63139;52.018;8.552;2023-10-19T10:47:10;4.22;;;2.40;;
74632;SDS011;63139;52.018;8.552;2023-10-19T10:49:46;4.03;;;2.35;;
74632;SDS011;63139;52.018;8.552;2023-10-19T10:52:25;3.38;;;2.35;;
74632;SDS011;63139;52.018;8.552;2023-10-19T10:54:57;2.88;;;2.40;;
74632;SDS011;63139;52.018;8.552;2023-10-19T10:57:32;2.20;;;1.98;;
74632;SDS011;63139;52.018;8.552;2023-10-19T11:00:01;3.83;;;2.00;;
74632;SDS011;63139;52.018;8.552;2023-10-19T11:02:31;2.15;;;1.90;;
74632;SDS011;63139;52.018;8.552;2023-10-19T11:05:00;2.60;;;1.90;;
74632;SDS011;63139;52.018;8.552;2023-10-19T11:07:28;4.13;;;1.75;;
74632;SDS011;63139;52.018;8.552;2023-10-19T11:09:57;3.25;;;1.90;;
74632;SDS011;63139;52.018;8.552;2023-10-19T11:12:25;3.47;;;1.90;;
74632;SDS011;63139;52.018;8.552;2023-10-19T11:14:53;3.58;;;2.00;;
74632;SDS011;63139;52.018;8.552;2023-10-19T11:17:21;3.03;;;1.92;;
74632;SDS011;63139;52.018;8.552;2023-10-19T11:19:55;3.17;;;1.88;;
74632;SDS011;63139;52.018;8.552;2023-10-19T11:22:24;2.95;;;1.90;;
74632;SDS011;63139;52.018;8.552;2023-10-19T11:24:52;4.97;;;2.00;;
74632;SDS011;63139;52.018;8.552;2023-10-19T11:27:26;4.60;;;2.17;;
74632;SDS011;63139;52.018;8.552;2023-10-19T11:29:54;2.75;;;1.92;;
74632;SDS011;63139;52.018;8.552;2023-10-19T11:32:23;2.55;;;2.00;;
74632;SDS011;63139;52.018;8.552;2023-10-19T11:34:53;3.35;;;2.25;;
74632;SDS011;63139;52.018;8.552;2023-10-19T11:37:21;3.80;;;2.08;;
74632;SDS011;63139;52.018;8.552;2023-10-19T11:39:49;3.20;;;2.03;;
74632;SDS011;63139;52.018;8.552;2023-10-19T11:42:17;4.68;;;2.05;;
74632;SDS011;63139;52.018;8.552;2023-10-19T11:44:47;6.20;;;2.25;;
74632;SDS011;63139;52.018;8.552;2023-10-19T11:47:15;4.90;;;2.10;;
74632;SDS011;63139;52.018;8.552;2023-10-19T11:49:43;2.15;;;1.92;;
74632;SDS011;63139;52.018;8.552;2023-10-19T11:52:11;4.43;;;1.90;;
74632;SDS011;63139;52.018;8.552;2023-10-19T11:54:39;7.47;;;2.47;;
74632;SDS011;63139;52.018;8.552;2023-10-19T11:57:08;2.25;;;1.70;;
74632;SDS011;63139;52.018;8.552;2023-10-19T11:59:36;4.43;;;2.00;;
74632;SDS011;63139;52.018;8.552;2023-10-19T12:02:05;1.95;;;1.73;;
74632;SDS011;63139;52.018;8.552;2023-10-19T12:04:33;3.65;;;1.80;;
74632;SDS011;63139;52.018;8.552;2023-10-19T12:07:02;3.72;;;1.95;;
74632;SDS011;63139;52.018;8.552;2023-10-19T12:09:31;3.40;;;2.05;;
74632;SDS011;63139;52.018;8.552;2023-10-19T12:11:59;2.95;;;1.95;;
74632;SDS011;63139;52.018;8.552;2023-10-19T12:14:27;3.58;;;2.00;;
74632;SDS011;63139;52.018;8.552;2023-10-19T12:16:55;2.92;;;1.90;;
74632;SDS011;63139;52.018;8.552;2023-10-19T12:19:26;2.20;;;1.90;;
74632;SDS011;63139;52.018;8.552;2023-10-19T12:21:56;4.57;;;2.08;;
74632;SDS011;63139;52.018;8.552;2023-10-19T12:24:24;3.83;;;2.00;;
74632;SDS011;63139;52.018;8.552;2023-10-19T12:26:54;4.88;;;2.30;;
74632;SDS011;63139;52.018;8.552;2023-10-19T12:29:22;5.07;;;2.50;;
74632;SDS011;63139;52.018;8.552;2023-10-19T12:31:51;2.42;;;1.83;;
74632;SDS011;63139;52.018;8.552;2023-10-19T12:34:19;2.50;;;1.75;;
74632;SDS011;63139;52.018;8.552;2023-10-19T12:36:50;5.03;;;2.00;;
74632;SDS011;63139;52.018;8.552;2023-10-19T12:39:18;3.75;;;1.98;;
74632;SDS011;63139;52.018;8.552;2023-10-19T12:42:00;6.80;;;2.30;;
74632;SDS011;63139;52.018;8.552;2023-10-19T12:44:29;4.18;;;1.70;;
74632;SDS011;63139;52.018;8.552;2023-10-19T12:47:05;5.32;;;2.25;;
74632;SDS011;63139;52.018;8.552;2023-10-19T12:49:36;3.63;;;2.13;;
74632;SDS011;63139;52.018;8.552;2023-10-19T12:52:05;3.42;;;1.98;;
74632;SDS011;63139;52.018;8.552;2023-10-19T12:54:34;6.13;;;2.20;;
74632;SDS011;63139;52.018;8.552;2023-10-19T12:57:02;5.32;;;1.90;;
74632;SDS011;63139;52.018;8.552;2023-10-19T12:59:33;5.50;;;2.35;;
74632;SDS011;63139;52.018;8.552;2023-10-19T13:02:03;3.97;;;2.10;;
74632;SDS011;63139;52.018;8.552;2023-10-19T13:04:35;4.63;;;2.20;;
74632;SDS011;63139;52.018;8.552;2023-10-19T13:07:03;4.63;;;2.05;;
74632;SDS011;63139;52.018;8.552;2023-10-19T13:09:33;3.17;;;1.90;;
74632;SDS011;63139;52.018;8.552;2023-10-19T13:12:02;2.85;;;1.90;;
74632;SDS011;63139;52.018;8.552;2023-10-19T13:14:34;4.85;;;1.80;;
74632;SDS011;63139;52.018;8.552;2023-10-19T13:17:01;4.22;;;1.92;;
74632;SDS011;63139;52.018;8.552;2023-10-19T13:19:30;5.72;;;1.80;;
74632;SDS011;63139;52.018;8.552;2023-10-19T13:21:59;2.72;;;1.80;;
74632;SDS011;63139;52.018;8.552;2023-10-19T13:24:31;4.35;;;1.95;;
74632;SDS011;63139;52.018;8.552;2023-10-19T13:27:08;4.70;;;2.28;;
74632;SDS011;63139;52.018;8.552;2023-10-19T13:29:36;5.05;;;2.85;;
74632;SDS011;63139;52.018;8.552;2023-10-19T13:32:07;6.28;;;3.28;;
74632;SDS011;63139;52.018;8.552;2023-10-19T13:34:35;3.65;;;2.78;;
74632;SDS011;63139;52.018;8.552;2023-10-19T13:37:06;5.05;;;3.55;;
74632;SDS011;63139;52.018;8.552;2023-10-19T13:39:34;4.65;;;3.40;;
74632;SDS011;63139;52.018;8.552;2023-10-19T13:42:02;4.32;;;3.03;;
74632;SDS011;63139;52.018;8.552;2023-10-19T13:44:32;5.90;;;3.22;;
74632;SDS011;63139;52.018;8.552;2023-10-19T13:47:01;4.28;;;3.00;;
74632;SDS011;63139;52.018;8.552;2023-10-19T13:49:31;4.85;;;3.38;;
74632;SDS011;63139;52.018;8.552;2023-10-19T13:51:59;6.28;;;3.58;;
74632;SDS011;63139;52.018;8.552;2023-10-19T13:54:27;3.33;;;3.03;;
74632;SDS011;63139;52.018;8.552;2023-10-19T13:56:55;3.95;;;3.17;;
74632;SDS011;63139;52.018;8.552;2023-10-19T13:59:23;5.28;;;3.60;;
74632;SDS011;63139;52.018;8.552;2023-10-19T14:01:52;5.07;;;3.17;;
74632;SDS011;63139;52.018;8.552;2023-10-19T14:04:20;6.47;;;3.63;;
74632;SDS011;63139;52.018;8.552;2023-10-19T14:06:49;4.82;;;3.15;;
74632;SDS011;63139;52.018;8.552;2023-10-19T14:09:17;3.78;;;3.33;;
74632;SDS011;63139;52.018;8.552;2023-10-19T14:11:45;5.45;;;3.28;;
74632;SDS011;63139;52.018;8.552;2023-10-19T14:14:13;5.00;;;3.10;;
74632;SDS011;63139;52.018;8.552;2023-10-19T14:16:41;7.10;;;3.03;;
74632;SDS011;63139;52.018;8.552;2023-10-19T14:19:12;4.05;;;3.03;;
74632;SDS011;63139;52.018;8.552;2023-10-19T14:21:41;5.82;;;3.70;;
74632;SDS011;63139;52.018;8.552;2023-10-19T14:24:12;5.97;;;3.78;;
74632;SDS011;63139;52.018;8.552;2023-10-19T14:26:40;4.72;;;3.42;;
74632;SDS011;63139;52.018;8.552;2023-10-19T14:29:09;4.32;;;3.33;;
74632;SDS011;63139;52.018;8.552;2023-10-19T14:31:38;6.95;;;3.95;;
74632;SDS011;63139;52.018;8.552;2023-10-19T14:34:07;4.93;;;4.10;;
74632;SDS011;63139;52.018;8.552;2023-10-19T14:36:36;5.75;;;3.90;;
74632;SDS011;63139;52.018;8.552;2023-10-19T14:39:04;6.43;;;3.80;;
74632;SDS011;63139;52.018;8.552;2023-10-19T14:41:32;5.25;;;3.75;;
74632;SDS011;63139;52.018;8.552;2023-10-19T14:44:00;5.22;;;4.10;;
74632;SDS011;63139;52.018;8.552;2023-10-19T14:46:30;8.38;;;4.45;;
74632;SDS011;63139;52.018;8.552;2023-10-19T14:48:58;7.63;;;4.20;;
74632;SDS011;63139;52.018;8.552;2023-10-19T14:51:26;5.75;;;4.60;;
74632;SDS011;63139;52.018;8.552;2023-10-19T14:53:56;8.65;;;4.45;;
74632;SDS011;63139;52.018;8.552;2023-10-19T14:56:24;9.25;;;4.55;;